createdAt,value
2023-03-15T00:04:03.104Z,20.70
2023-03-15T00:09:15.564Z,20.80
2023-03-15T00:14:22.275Z,20.80
2023-03-15T00:19:28.535Z,20.70
2023-03-15T00:24:34.264Z,20.70
2023-03-15T00:29:39.885Z,20.70
2023-03-15T00:34:50.204Z,20.80
2023-03-15T00:39:56.967Z,20.90
2023-03-15T00:45:02.365Z,20.90
2023-03-15T00:50:07.911Z,21.10
2023-03-15T00:55:16.414Z,21.10
2023-03-15T01:00:26.447Z,21.20
2023-03-15T01:05:32.611Z,21.20
2023-03-15T01:10:37.933Z,21.30
2023-03-15T01:15:48.995Z,21.40
2023-03-15T01:20:54.810Z,21.50
2023-03-15T01:26:04.105Z,21.70
2023-03-15T01:31:11.694Z,21.70
2023-03-15T01:36:18.051Z,21.50
2023-03-15T01:41:26.060Z,21.50
2023-03-15T01:46:36.889Z,21.40
2023-03-15T01:51:59.713Z,21.30
2023-03-15T01:57:20.745Z,21.10
2023-03-15T02:02:36.041Z,20.90
2023-03-15T02:07:53.424Z,20.70
2023-03-15T02:13:01.874Z,20.50
2023-03-15T02:18:10.454Z,20.50
2023-03-15T02:23:25.917Z,20.60
2023-03-15T02:28:32.272Z,20.90
2023-03-15T02:33:45.598Z,21.30
2023-03-15T02:38:53.587Z,21.50
2023-03-15T02:44:07.404Z,21.70
2023-03-15T02:49:15.021Z,22.10
2023-03-15T02:54:20.855Z,22.60
2023-03-15T02:59:26.010Z,23.00
2023-03-15T03:04:31.536Z,23.30
2023-03-15T03:09:37.183Z,23.30
2023-03-15T03:14:44.590Z,23.30
2023-03-15T03:19:54.446Z,22.80
2023-03-15T03:25:09.248Z,22.80
2023-03-15T03:30:16.704Z,22.80
2023-03-15T03:35:27.946Z,23.30
2023-03-15T03:40:34.091Z,23.30
2023-03-15T03:45:40.499Z,23.20
2023-03-15T03:50:49.959Z,23.50
2023-03-15T03:55:58.922Z,23.60
2023-03-15T04:01:05.388Z,23.60
2023-03-15T04:06:12.880Z,23.70
2023-03-15T04:11:22.202Z,24.30
2023-03-15T04:16:33.495Z,24.80
2023-03-15T04:21:48.460Z,25.10
2023-03-15T04:27:02.899Z,25.10
2023-03-15T04:32:19.877Z,25.10
2023-03-15T04:37:35.945Z,25.50
2023-03-15T04:43:07.153Z,25.70
2023-03-15T04:48:38.923Z,25.60
2023-03-15T04:54:03.717Z,25.20
2023-03-15T04:59:22.137Z,24.90
2023-03-15T05:04:27.336Z,24.70
2023-03-15T05:09:52.427Z,24.80
2023-03-15T05:15:19.034Z,25.10
2023-03-15T05:21:03.518Z,25.20
2023-03-15T05:26:48.374Z,25.20
2023-03-15T05:31:57.000Z,25.70
2023-03-15T05:37:26.248Z,27.00
2023-03-15T05:42:55.322Z,27.50
2023-03-15T05:48:13.966Z,27.20
2023-03-15T05:53:44.127Z,26.50
2023-03-15T05:59:08.824Z,25.80
2023-03-15T06:04:24.975Z,25.30
2023-03-15T06:09:33.830Z,25.20
2023-03-15T06:14:41.167Z,25.20
2023-03-15T06:19:47.192Z,25.20
2023-03-15T06:24:53.495Z,25.10
2023-03-15T06:30:02.217Z,25.00
2023-03-15T06:35:09.954Z,25.30
2023-03-15T06:40:16.557Z,25.50
2023-03-15T06:45:25.030Z,25.00
2023-03-15T06:50:46.084Z,24.50
2023-03-15T06:55:53.616Z,24.20
2023-03-15T07:00:59.555Z,23.80
2023-03-15T07:06:05.441Z,23.60
2023-03-15T07:11:11.181Z,23.30
2023-03-15T07:16:17.122Z,22.80
2023-03-15T07:21:22.958Z,23.00
2023-03-15T07:26:31.882Z,23.70
2023-03-15T07:31:37.502Z,24.20
2023-03-15T07:36:43.044Z,24.30
2023-03-15T07:41:48.447Z,24.30
2023-03-15T07:47:01.237Z,24.20
2023-03-15T07:52:07.005Z,24.00
2023-03-15T07:57:12.950Z,23.90
2023-03-15T08:02:18.462Z,24.00
2023-03-15T08:07:23.604Z,24.30
2023-03-15T08:12:29.053Z,24.70
2023-03-15T08:17:34.467Z,25.00
2023-03-15T08:22:40.421Z,25.00
2023-03-15T08:27:46.600Z,25.00
2023-03-15T08:32:56.100Z,24.90
2023-03-15T08:38:03.875Z,24.70
2023-03-15T08:43:09.802Z,24.30
2023-03-15T08:48:15.704Z,23.90
2023-03-15T08:53:21.225Z,23.70
2023-03-15T08:58:26.467Z,23.50
2023-03-15T09:03:34.071Z,23.40
2023-03-15T09:08:39.844Z,23.40
2023-03-15T09:13:45.848Z,23.50
2023-03-15T09:18:52.154Z,23.60
2023-03-15T09:23:57.592Z,23.70
2023-03-15T09:29:03.256Z,23.70
2023-03-15T09:34:11.784Z,23.70
2023-03-15T09:39:17.632Z,23.60
2023-03-15T09:44:46.631Z,23.40
2023-03-15T09:50:05.411Z,23.20
2023-03-15T09:55:30.134Z,23.10
2023-03-15T10:00:52.278Z,22.90
2023-03-15T10:06:12.832Z,22.70
2023-03-15T10:11:28.966Z,22.60
2023-03-15T10:16:42.236Z,22.60
2023-03-15T10:22:17.723Z,22.60
2023-03-15T10:27:52.145Z,22.50
2023-03-15T10:33:21.681Z,22.50
2023-03-15T10:38:29.111Z,22.40
2023-03-15T10:43:38.631Z,22.40
2023-03-15T10:49:03.146Z,22.30
2023-03-15T10:54:20.345Z,22.30
2023-03-15T10:59:28.577Z,22.20
2023-03-15T11:04:34.522Z,22.10
2023-03-15T11:09:41.001Z,22.10
2023-03-15T11:14:50.664Z,22.10
2023-03-15T11:20:29.645Z,22.00
2023-03-15T11:25:36.035Z,22.00
2023-03-15T11:30:43.780Z,22.00
2023-03-15T11:35:51.199Z,22.00
2023-03-15T11:41:05.298Z,22.00
2023-03-15T11:46:24.880Z,22.00
2023-03-15T11:51:37.392Z,22.00
2023-03-15T11:56:46.727Z,21.90
2023-03-15T12:02:00.155Z,21.90
2023-03-15T12:07:34.950Z,21.90
2023-03-15T12:12:49.692Z,21.90
2023-03-15T12:18:08.935Z,21.90
2023-03-15T12:23:21.507Z,21.90
2023-03-15T12:28:40.256Z,21.80
2023-03-15T12:33:55.989Z,21.90
2023-03-15T12:39:06.074Z,21.80
2023-03-15T12:44:35.219Z,21.80
2023-03-15T12:49:48.405Z,21.80
2023-03-15T12:55:20.438Z,21.70
2023-03-15T13:00:33.713Z,21.70
2023-03-15T13:06:31.799Z,21.60
2023-03-15T13:11:52.660Z,21.60
2023-03-15T13:17:32.018Z,21.70
2023-03-15T13:23:00.161Z,21.70
2023-03-15T13:28:38.461Z,21.70
2023-03-15T13:33:54.972Z,21.70
2023-03-15T13:39:12.271Z,21.80
2023-03-15T13:44:41.143Z,21.80
2023-03-15T13:49:56.196Z,21.80
2023-03-15T13:55:10.962Z,21.80
2023-03-15T14:00:27.718Z,21.90
2023-03-15T14:05:54.621Z,21.90
2023-03-15T14:11:30.618Z,21.90
2023-03-15T14:17:03.159Z,21.90
2023-03-15T14:22:25.062Z,21.90
2023-03-15T14:27:34.399Z,21.90
2023-03-15T14:32:53.780Z,21.90
2023-03-15T14:38:15.027Z,21.90
2023-03-15T14:43:23.233Z,22.00
2023-03-15T14:48:57.796Z,21.90
2023-03-15T14:54:04.151Z,21.90
2023-03-15T14:59:21.612Z,21.80
2023-03-15T15:04:34.853Z,21.80
2023-03-15T15:09:46.102Z,21.60
2023-03-15T15:14:52.756Z,21.50
2023-03-15T15:19:59.503Z,21.30
2023-03-15T15:25:20.059Z,21.30
2023-03-15T15:30:29.619Z,21.30
2023-03-15T15:35:35.758Z,21.40
2023-03-15T15:40:42.274Z,21.40
2023-03-15T15:45:48.739Z,21.50
2023-03-15T15:50:55.376Z,21.60
2023-03-15T15:56:02.277Z,21.60
2023-03-15T16:01:08.798Z,21.20
2023-03-15T16:06:21.029Z,20.90
2023-03-15T16:11:27.334Z,20.70
2023-03-15T16:16:33.234Z,20.60
2023-03-15T16:21:49.342Z,20.40
2023-03-15T16:27:04.446Z,20.30
2023-03-15T16:32:19.304Z,20.20
2023-03-15T16:37:33.216Z,20.30
2023-03-15T16:42:39.248Z,20.40
2023-03-15T16:47:45.632Z,20.50
2023-03-15T16:52:55.346Z,20.50
2023-03-15T16:58:04.570Z,20.50
2023-03-15T17:03:10.399Z,20.60
2023-03-15T17:08:20.438Z,20.70
2023-03-15T17:13:31.719Z,20.60
2023-03-15T17:18:37.453Z,20.70
2023-03-15T17:23:44.329Z,20.60
2023-03-15T17:28:51.179Z,20.50
2023-03-15T17:33:57.399Z,20.40
2023-03-15T17:39:04.973Z,20.40
2023-03-15T17:44:12.582Z,20.40
2023-03-15T17:49:18.888Z,20.40
2023-03-15T17:54:25.872Z,20.40
2023-03-15T17:59:30.894Z,20.50
2023-03-15T18:04:36.301Z,20.40
2023-03-15T18:09:41.835Z,20.30
2023-03-15T18:14:47.664Z,20.30
2023-03-15T18:19:53.216Z,20.30
2023-03-15T18:24:58.276Z,20.30
2023-03-15T18:30:31.901Z,20.40
2023-03-15T18:35:39.331Z,20.30
2023-03-15T18:40:44.735Z,20.30
2023-03-15T18:45:50.163Z,20.40
2023-03-15T18:50:55.269Z,20.40
2023-03-15T18:56:00.341Z,20.30
2023-03-15T19:01:05.730Z,20.30
2023-03-15T19:06:13.513Z,20.30
2023-03-15T19:11:18.653Z,20.30
2023-03-15T19:16:25.283Z,20.30
2023-03-15T19:21:30.437Z,20.30
2023-03-15T19:26:35.816Z,20.20
2023-03-15T19:31:40.936Z,20.30
2023-03-15T19:36:46.349Z,20.30
2023-03-15T19:41:51.806Z,20.30
2023-03-15T19:46:57.244Z,20.30
2023-03-15T19:52:02.576Z,20.30
2023-03-15T19:57:07.882Z,20.30
2023-03-15T20:02:14.392Z,20.30
2023-03-15T20:07:19.885Z,20.30
2023-03-15T20:12:24.985Z,20.30
2023-03-15T20:17:30.019Z,20.40
2023-03-15T20:22:35.056Z,20.40
2023-03-15T20:27:41.259Z,20.40
2023-03-15T20:32:46.781Z,20.40
2023-03-15T20:37:54.250Z,20.40
2023-03-15T20:42:59.630Z,20.50
2023-03-15T20:48:04.909Z,20.50
2023-03-15T20:53:10.139Z,20.50
2023-03-15T20:58:15.529Z,20.40
2023-03-15T21:03:21.127Z,20.40
2023-03-15T21:08:26.328Z,20.40
2023-03-15T21:13:32.133Z,20.50
2023-03-15T21:18:38.434Z,20.40
2023-03-15T21:23:43.570Z,20.40
2023-03-15T21:28:49.440Z,20.40
2023-03-15T21:33:54.607Z,20.40
2023-03-15T21:39:01.077Z,20.40
2023-03-15T21:44:06.856Z,20.30
2023-03-15T21:49:13.384Z,20.30
2023-03-15T21:54:19.272Z,20.30
2023-03-15T21:59:29.051Z,20.30
2023-03-15T22:04:35.239Z,20.30
2023-03-15T22:09:42.523Z,20.30
2023-03-15T22:14:56.864Z,20.40
2023-03-15T22:20:17.623Z,20.30
2023-03-15T22:25:23.080Z,20.30
2023-03-15T22:30:28.608Z,20.30
2023-03-15T22:35:34.413Z,20.30
2023-03-15T22:40:41.719Z,20.30
2023-03-15T22:45:47.406Z,20.40
2023-03-15T22:51:01.465Z,20.50
2023-03-15T22:56:07.671Z,20.50
2023-03-15T23:01:12.638Z,20.50
2023-03-15T23:06:18.557Z,20.50
2023-03-15T23:11:24.228Z,20.60
2023-03-15T23:16:29.924Z,20.50
2023-03-15T23:22:31.253Z,20.50
2023-03-15T23:27:55.217Z,20.50
2023-03-15T23:33:03.981Z,20.50
2023-03-15T23:38:10.131Z,20.50
2023-03-15T23:43:15.439Z,20.60
2023-03-15T23:48:20.563Z,20.70
2023-03-15T23:53:27.128Z,20.70
2023-03-15T23:58:32.541Z,20.70
